createdAt,value
2018-03-29T00:01:47.900Z,93.90
2018-03-29T00:04:16.120Z,94.20
2018-03-29T00:06:43.565Z,94.20
2018-03-29T00:09:11.008Z,93.90
2018-03-29T00:11:38.453Z,94.10
2018-03-29T00:14:05.897Z,94.30
2018-03-29T00:16:34.110Z,94.20
2018-03-29T00:19:01.556Z,94.20
2018-03-29T00:21:29.003Z,94.50
2018-03-29T00:23:56.446Z,94.30
2018-03-29T00:26:24.662Z,94.00
2018-03-29T00:28:52.132Z,94.00
2018-03-29T00:31:19.569Z,94.00
2018-03-29T00:33:47.025Z,93.70
2018-03-29T00:36:14.456Z,93.50
2018-03-29T00:38:41.913Z,93.70
2018-03-29T00:41:09.357Z,94.00
2018-03-29T00:43:37.573Z,92.60
2018-03-29T00:46:05.017Z,92.50
2018-03-29T00:48:32.460Z,93.80
2018-03-29T00:50:59.907Z,93.10
2018-03-29T00:53:39.113Z,92.80
2018-03-29T00:56:07.321Z,91.90
2018-03-29T00:58:34.775Z,91.80
2018-03-29T01:01:02.226Z,91.80
2018-03-29T01:03:29.668Z,91.40
2018-03-29T01:05:57.879Z,92.30
2018-03-29T01:08:25.322Z,92.30
2018-03-29T01:10:52.764Z,92.20
2018-03-29T01:13:20.201Z,91.80
2018-03-29T01:15:48.413Z,91.80
2018-03-29T01:18:15.856Z,91.80
2018-03-29T01:20:43.298Z,92.00
2018-03-29T01:23:11.512Z,92.20
2018-03-29T01:25:38.957Z,92.20
2018-03-29T01:28:06.401Z,91.80
2018-03-29T01:30:33.839Z,92.00
2018-03-29T01:33:02.052Z,92.90
2018-03-29T01:35:29.493Z,92.90
2018-03-29T01:37:56.932Z,93.00
2018-03-29T01:40:24.377Z,92.20
2018-03-29T01:42:52.584Z,91.70
2018-03-29T01:45:20.029Z,91.70
2018-03-29T01:47:47.590Z,91.90
2018-03-29T01:50:15.040Z,91.20
2018-03-29T01:52:42.480Z,91.70
2018-03-29T01:55:10.691Z,91.70
2018-03-29T01:57:38.137Z,91.70
2018-03-29T02:00:05.588Z,91.80
2018-03-29T02:02:33.034Z,91.50
2018-03-29T02:05:00.489Z,92.90
2018-03-29T02:07:27.931Z,93.10
2018-03-29T02:09:56.144Z,94.30
2018-03-29T02:12:23.590Z,94.30
2018-03-29T02:14:51.042Z,94.30
2018-03-29T02:17:18.480Z,94.60
2018-03-29T02:19:46.703Z,95.30
2018-03-29T02:22:14.144Z,95.30
2018-03-29T02:24:41.595Z,95.30
2018-03-29T02:27:09.054Z,95.90
2018-03-29T02:29:36.504Z,95.80
2018-03-29T02:32:03.940Z,95.60
2018-03-29T02:34:31.396Z,95.30
2018-03-29T02:36:59.604Z,94.60
2018-03-29T02:39:27.057Z,94.60
2018-03-29T02:41:54.498Z,94.20
2018-03-29T02:44:21.937Z,93.70
2018-03-29T02:46:50.148Z,93.20
2018-03-29T02:49:17.593Z,93.20
2018-03-29T02:51:45.028Z,92.70
2018-03-29T02:54:12.472Z,91.30
2018-03-29T02:56:40.676Z,92.50
2018-03-29T02:59:08.129Z,92.50
2018-03-29T03:01:35.572Z,91.70
2018-03-29T03:04:03.017Z,92.90
2018-03-29T03:06:31.321Z,94.20
2018-03-29T03:08:58.757Z,94.20
2018-03-29T03:11:26.204Z,93.50
2018-03-29T03:13:54.408Z,91.40
2018-03-29T03:16:21.865Z,91.30
2018-03-29T03:18:49.308Z,88.90
2018-03-29T03:21:16.756Z,90.00
2018-03-29T03:23:44.976Z,89.30
2018-03-29T03:26:12.420Z,89.20
2018-03-29T03:28:39.864Z,85.70
2018-03-29T03:31:07.318Z,86.40
2018-03-29T03:33:34.768Z,82.40
2018-03-29T03:36:02.218Z,84.50
2018-03-29T03:38:29.665Z,80.10
2018-03-29T03:40:57.880Z,81.50
2018-03-29T03:43:25.325Z,81.50
2018-03-29T03:45:53.548Z,77.50
2018-03-29T03:48:20.992Z,77.40
2018-03-29T03:50:48.444Z,77.50
2018-03-29T03:53:15.898Z,77.40
2018-03-29T03:55:43.348Z,78.10
2018-03-29T03:58:10.792Z,81.60
2018-03-29T04:00:38.245Z,85.30
2018-03-29T04:03:05.697Z,89.60
2018-03-29T04:05:33.156Z,91.10
2018-03-29T04:08:00.605Z,91.10
2018-03-29T04:10:28.067Z,91.50
2018-03-29T04:12:55.514Z,91.50
2018-03-29T04:15:22.968Z,91.70
2018-03-29T04:17:50.408Z,92.00
2018-03-29T04:20:17.859Z,91.60
2018-03-29T04:22:45.313Z,91.80
2018-03-29T04:25:13.541Z,91.50
2018-03-29T04:27:40.979Z,91.40
2018-03-29T04:30:08.436Z,91.90
2018-03-29T04:32:35.878Z,92.30
2018-03-29T04:35:03.327Z,92.10
2018-03-29T04:37:30.793Z,92.60
2018-03-29T04:39:58.236Z,92.10
2018-03-29T04:42:25.678Z,92.20
2018-03-29T04:44:53.908Z,92.20
2018-03-29T04:47:21.358Z,92.20
2018-03-29T04:49:48.802Z,92.50
2018-03-29T04:52:16.249Z,92.20
2018-03-29T04:54:43.696Z,91.40
2018-03-29T04:57:11.139Z,92.20
2018-03-29T04:59:39.337Z,91.60
2018-03-29T05:02:06.790Z,91.60
2018-03-29T05:04:34.229Z,91.40
2018-03-29T05:07:01.680Z,91.70
2018-03-29T05:09:29.885Z,92.30
2018-03-29T05:11:57.324Z,92.30
2018-03-29T05:14:24.778Z,91.30
2018-03-29T05:16:52.240Z,91.90
2018-03-29T05:19:19.680Z,92.00
2018-03-29T05:21:47.138Z,90.70
2018-03-29T05:24:14.581Z,91.10
2018-03-29T05:26:42.796Z,90.40
2018-03-29T05:29:10.257Z,90.30
2018-03-29T05:31:37.709Z,90.20
2018-03-29T05:34:05.633Z,90.40
2018-03-29T05:36:33.880Z,90.30
2018-03-29T05:39:01.353Z,90.30
2018-03-29T05:41:28.811Z,90.90
2018-03-29T05:43:56.291Z,91.50
2018-03-29T05:46:23.791Z,91.40
2018-03-29T05:48:51.261Z,91.50
2018-03-29T05:51:18.706Z,91.60
2018-03-29T05:53:46.179Z,91.30
2018-03-29T05:56:14.401Z,91.50
2018-03-29T05:58:41.845Z,91.80
2018-03-29T06:01:10.447Z,91.90
2018-03-29T06:03:37.897Z,91.90
2018-03-29T06:06:05.347Z,92.60
2018-03-29T06:08:32.801Z,91.40
2018-03-29T06:11:01.075Z,91.60
2018-03-29T06:13:28.477Z,91.60
2018-03-29T06:16:01.657Z,89.70
2018-03-29T06:18:32.876Z,89.00
2018-03-29T06:21:00.336Z,90.00
2018-03-29T06:23:27.787Z,89.80
2018-03-29T06:25:55.237Z,86.80
2018-03-29T06:28:22.749Z,85.90
2018-03-29T06:30:50.318Z,82.20
2018-03-29T06:33:17.760Z,80.80
2018-03-29T06:35:45.217Z,82.40
2018-03-29T06:38:12.668Z,83.80
2018-03-29T06:40:40.142Z,85.50
2018-03-29T06:43:08.392Z,83.60
2018-03-29T06:45:35.845Z,83.60
2018-03-29T06:48:03.332Z,83.80
2018-03-29T06:50:30.773Z,86.70
2018-03-29T06:52:58.213Z,85.80
2018-03-29T06:55:25.651Z,83.50
2018-03-29T06:57:53.095Z,80.90
2018-03-29T07:00:20.537Z,81.50
2018-03-29T07:02:48.751Z,81.10
2018-03-29T07:05:16.196Z,81.10
2018-03-29T07:07:43.652Z,82.20
2018-03-29T07:10:11.136Z,83.70
2018-03-29T07:12:38.548Z,81.00
2018-03-29T07:15:05.993Z,81.10
2018-03-29T07:17:34.209Z,82.20
2018-03-29T07:20:01.656Z,82.30
2018-03-29T07:22:29.100Z,83.30
2018-03-29T07:24:56.548Z,81.80
2018-03-29T07:27:24.024Z,81.00
2018-03-29T07:29:51.469Z,82.70
2018-03-29T07:32:18.944Z,84.60
2018-03-29T07:34:46.389Z,82.90
2018-03-29T07:37:13.832Z,84.70
2018-03-29T07:39:41.284Z,84.60
2018-03-29T07:42:08.715Z,84.40
2018-03-29T07:44:36.934Z,84.60
2018-03-29T07:47:04.428Z,84.50
2018-03-29T07:49:31.820Z,84.90
2018-03-29T07:52:00.030Z,84.30
2018-03-29T07:54:27.476Z,84.30
2018-03-29T07:56:54.927Z,85.70
2018-03-29T07:59:22.388Z,84.20
2018-03-29T08:01:49.836Z,82.80
2018-03-29T08:04:17.290Z,82.60
2018-03-29T08:06:44.739Z,83.10
2018-03-29T08:09:12.189Z,82.10
2018-03-29T08:11:39.633Z,78.80
2018-03-29T08:14:07.852Z,75.90
2018-03-29T08:16:35.292Z,75.80
2018-03-29T08:19:02.741Z,73.90
2018-03-29T08:21:30.193Z,71.10
2018-03-29T08:23:57.639Z,64.20
2018-03-29T08:26:25.861Z,58.40
2018-03-29T08:28:53.307Z,58.30
2018-03-29T08:31:20.751Z,55.00
2018-03-29T08:33:48.201Z,51.50
2018-03-29T08:36:15.648Z,48.10
2018-03-29T08:38:43.100Z,44.00
2018-03-29T08:41:10.550Z,42.00
2018-03-29T08:43:38.761Z,43.60
2018-03-29T08:46:06.208Z,42.80
2018-03-29T08:48:33.656Z,40.60
2018-03-29T08:51:01.113Z,37.90
2018-03-29T08:53:28.560Z,38.00
2018-03-29T08:55:56.018Z,38.70
2018-03-29T08:58:23.468Z,40.80
2018-03-29T09:00:50.940Z,42.40
2018-03-29T09:03:18.381Z,44.50
2018-03-29T09:05:45.840Z,47.20
2018-03-29T09:08:13.298Z,50.00
2018-03-29T09:10:40.745Z,48.60
2018-03-29T09:13:08.967Z,47.20
2018-03-29T09:15:36.413Z,47.20
2018-03-29T09:18:03.868Z,46.20
2018-03-29T09:20:31.316Z,48.10
2018-03-29T09:22:58.782Z,47.60
2018-03-29T09:25:26.224Z,48.80
2018-03-29T09:27:53.676Z,52.70
2018-03-29T09:30:21.120Z,55.50
2018-03-29T09:32:48.569Z,54.50
2018-03-29T09:35:16.776Z,57.20
2018-03-29T09:37:44.234Z,57.20
2018-03-29T09:40:11.676Z,59.40
2018-03-29T09:42:39.131Z,58.50
2018-03-29T09:45:06.569Z,58.60
2018-03-29T09:47:34.788Z,48.90
2018-03-29T09:50:02.250Z,48.80
2018-03-29T09:52:29.709Z,41.50
2018-03-29T09:54:57.160Z,36.80
2018-03-29T09:57:24.626Z,33.30
2018-03-29T09:59:52.073Z,30.80
2018-03-29T10:02:20.330Z,33.00
2018-03-29T10:04:53.517Z,35.10
2018-03-29T10:07:23.932Z,39.60
2018-03-29T10:09:51.395Z,42.80
2018-03-29T10:12:18.848Z,44.30
2018-03-29T10:14:46.306Z,47.10
2018-03-29T10:17:13.761Z,49.00
2018-03-29T10:19:41.204Z,50.60
2018-03-29T10:22:08.642Z,51.10
2018-03-29T10:24:36.847Z,52.90
2018-03-29T10:27:04.293Z,52.30
2018-03-29T10:29:31.737Z,49.50
2018-03-29T10:31:59.941Z,50.60
2018-03-29T10:34:27.388Z,50.60
2018-03-29T10:36:54.824Z,52.50
2018-03-29T10:39:23.118Z,47.40
2018-03-29T10:41:50.561Z,47.30
2018-03-29T10:44:18.008Z,47.60
2018-03-29T10:46:46.212Z,50.30
2018-03-29T10:49:13.648Z,50.10
2018-03-29T10:51:41.093Z,51.80
2018-03-29T10:54:09.301Z,52.00
2018-03-29T10:56:36.749Z,51.90
2018-03-29T10:59:04.227Z,52.60
2018-03-29T11:01:31.671Z,51.90
2018-03-29T11:03:59.112Z,53.10
2018-03-29T11:06:26.557Z,52.00
2018-03-29T11:08:54.770Z,51.30
2018-03-29T11:11:22.208Z,51.30
2018-03-29T11:13:49.662Z,47.80
2018-03-29T11:16:17.109Z,46.10
2018-03-29T11:18:44.561Z,43.10
2018-03-29T11:21:12.005Z,45.50
2018-03-29T11:23:40.220Z,45.20
2018-03-29T11:26:07.667Z,45.20
2018-03-29T11:28:35.117Z,45.30
2018-03-29T11:31:02.570Z,42.90
2018-03-29T11:33:30.062Z,43.70
2018-03-29T11:35:57.457Z,45.40
2018-03-29T11:38:25.670Z,45.40
2018-03-29T11:40:53.120Z,45.40
2018-03-29T11:43:20.569Z,46.20
2018-03-29T11:45:48.017Z,49.40
2018-03-29T11:48:15.466Z,48.00
2018-03-29T11:50:43.684Z,48.10
2018-03-29T11:53:11.909Z,45.30
2018-03-29T11:55:40.121Z,47.10
2018-03-29T11:58:07.560Z,47.10
2018-03-29T12:00:35.014Z,46.00
2018-03-29T12:03:02.465Z,46.40
2018-03-29T12:05:29.909Z,44.90
2018-03-29T12:07:58.121Z,46.80
2018-03-29T12:10:25.564Z,46.80
2018-03-29T12:12:53.010Z,45.80
2018-03-29T12:15:20.459Z,45.70
2018-03-29T12:17:47.909Z,45.60
2018-03-29T12:20:16.128Z,42.10
2018-03-29T12:22:43.573Z,42.00
2018-03-29T12:25:11.024Z,38.40
2018-03-29T12:27:38.472Z,38.40
2018-03-29T12:30:05.922Z,37.20
2018-03-29T12:32:33.372Z,39.50
2018-03-29T12:35:00.824Z,41.60
2018-03-29T12:37:28.280Z,37.90
2018-03-29T12:39:55.732Z,36.00
2018-03-29T12:42:23.199Z,36.70
2018-03-29T12:44:50.681Z,36.90
2018-03-29T12:47:18.102Z,39.00
2018-03-29T12:49:46.318Z,41.20
2018-03-29T12:52:13.765Z,41.10
2018-03-29T12:54:53.009Z,43.40
2018-03-29T12:57:32.381Z,38.60
2018-03-29T13:00:00.597Z,37.80
2018-03-29T13:02:28.045Z,37.80
2018-03-29T13:04:55.500Z,39.10
2018-03-29T13:07:22.953Z,37.70
2018-03-29T13:09:50.409Z,40.40
2018-03-29T13:12:17.875Z,35.50
2018-03-29T13:14:45.317Z,36.10
2018-03-29T13:17:12.764Z,37.60
2018-03-29T13:19:40.990Z,36.00
2018-03-29T13:22:09.204Z,40.20
2018-03-29T13:24:37.428Z,37.10
2018-03-29T13:27:04.880Z,37.10
2018-03-29T13:29:32.336Z,39.40
2018-03-29T13:31:59.788Z,41.10
2018-03-29T13:34:27.241Z,40.90
2018-03-29T13:36:54.684Z,41.70
2018-03-29T13:39:22.128Z,42.00
2018-03-29T13:41:50.365Z,43.20
2018-03-29T13:44:17.833Z,43.10
2018-03-29T13:46:45.281Z,42.60
2018-03-29T13:49:12.791Z,42.60
2018-03-29T13:51:40.242Z,43.30
2018-03-29T13:54:07.692Z,42.10
2018-03-29T13:56:35.151Z,43.30
2018-03-29T13:59:02.591Z,45.00
2018-03-29T14:01:30.798Z,44.30
2018-03-29T14:03:58.252Z,44.30
2018-03-29T14:06:25.719Z,44.90
2018-03-29T14:08:53.177Z,46.90
2018-03-29T14:11:21.280Z,44.70
2018-03-29T14:13:49.977Z,46.00
2018-03-29T14:16:17.421Z,45.90
2018-03-29T14:18:44.875Z,44.90
2018-03-29T14:21:12.322Z,45.50
2018-03-29T14:23:39.768Z,48.00
2018-03-29T14:26:07.221Z,46.60
2018-03-29T14:28:34.664Z,43.70
2018-03-29T14:31:04.700Z,47.60
2018-03-29T14:33:32.154Z,45.60
2018-03-29T14:35:59.601Z,45.30
2018-03-29T14:38:27.051Z,45.30
2018-03-29T14:40:54.500Z,45.10
2018-03-29T14:43:22.600Z,46.00
2018-03-29T14:45:50.053Z,44.30
2018-03-29T14:48:18.049Z,44.00
2018-03-29T14:50:45.512Z,44.20
2018-03-29T14:53:12.945Z,45.00
2018-03-29T14:55:40.388Z,43.30
2018-03-29T14:58:07.844Z,44.10
2018-03-29T15:00:35.296Z,47.10
2018-03-29T15:03:03.678Z,45.00
2018-03-29T15:05:31.173Z,45.60
2018-03-29T15:07:59.458Z,46.00
2018-03-29T15:10:26.873Z,46.00
2018-03-29T15:12:54.325Z,45.70
2018-03-29T15:15:21.773Z,46.60
2018-03-29T15:17:49.225Z,48.40
2018-03-29T15:20:16.674Z,48.20
2018-03-29T15:22:44.123Z,45.70
2018-03-29T15:25:11.589Z,49.50
2018-03-29T15:27:39.040Z,48.70
2018-03-29T15:30:06.485Z,48.70
2018-03-29T15:32:34.006Z,50.00
2018-03-29T15:35:01.448Z,49.20
2018-03-29T15:37:28.914Z,48.80
2018-03-29T15:39:56.357Z,50.10
2018-03-29T15:42:23.809Z,48.90
2018-03-29T15:44:51.269Z,47.30
2018-03-29T15:47:18.717Z,46.90
2018-03-29T15:49:47.067Z,47.00
2018-03-29T15:52:14.520Z,46.60
2018-03-29T15:54:42.009Z,46.80
2018-03-29T15:57:09.502Z,45.40
2018-03-29T15:59:37.708Z,47.10
2018-03-29T16:02:05.157Z,46.40
2018-03-29T16:04:32.609Z,47.20
2018-03-29T16:07:00.078Z,46.70
2018-03-29T16:09:28.547Z,47.60
2018-03-29T16:11:56.014Z,47.80
2018-03-29T16:14:23.456Z,49.80
2018-03-29T16:16:50.915Z,49.30
2018-03-29T16:19:19.117Z,49.30
2018-03-29T16:21:46.560Z,49.30
2018-03-29T16:24:14.037Z,49.40
2018-03-29T16:26:41.500Z,47.60
2018-03-29T16:29:08.957Z,47.20
2018-03-29T16:31:37.173Z,48.00
2018-03-29T16:34:05.381Z,48.90
2018-03-29T16:36:32.829Z,48.90
2018-03-29T16:39:00.278Z,49.30
2018-03-29T16:41:27.725Z,48.30
2018-03-29T16:43:56.056Z,49.60
2018-03-29T16:46:24.092Z,49.60
2018-03-29T16:48:51.603Z,50.30
2018-03-29T16:51:19.004Z,50.60
2018-03-29T16:53:46.452Z,51.30
2018-03-29T16:56:13.932Z,50.90
2018-03-29T16:58:41.432Z,51.60
2018-03-29T17:01:08.872Z,52.70
2018-03-29T17:03:36.313Z,52.60
2018-03-29T17:06:03.757Z,51.60
2018-03-29T17:08:31.221Z,53.30
2018-03-29T17:10:58.734Z,52.70
2018-03-29T17:13:26.941Z,55.80
2018-03-29T17:15:54.387Z,55.80
2018-03-29T17:18:21.830Z,56.10
2018-03-29T17:20:49.276Z,54.20
2018-03-29T17:23:17.489Z,55.80
2018-03-29T17:25:44.929Z,55.80
2018-03-29T17:28:12.380Z,57.40
2018-03-29T17:30:39.849Z,57.80
2018-03-29T17:33:07.397Z,58.90
2018-03-29T17:35:34.844Z,61.00
2018-03-29T17:38:02.295Z,61.90
2018-03-29T17:40:29.746Z,63.20
2018-03-29T17:42:57.969Z,66.90
2018-03-29T17:45:26.197Z,68.50
2018-03-29T17:47:54.457Z,71.70
2018-03-29T17:50:21.876Z,71.70
2018-03-29T17:52:49.328Z,74.00
2018-03-29T17:55:16.785Z,73.90
2018-03-29T17:57:44.231Z,72.90
2018-03-29T18:00:11.687Z,73.70
2018-03-29T18:02:39.128Z,75.90
2018-03-29T18:05:07.513Z,74.30
2018-03-29T18:07:34.989Z,76.60
2018-03-29T18:10:34.187Z,79.00
2018-03-29T18:13:01.675Z,78.90
2018-03-29T18:15:29.163Z,80.00
2018-03-29T18:17:56.619Z,79.60
2018-03-29T18:20:24.115Z,81.20
2018-03-29T18:22:51.601Z,82.50
2018-03-29T18:25:19.103Z,83.20
2018-03-29T18:27:46.573Z,85.10
2018-03-29T18:30:14.044Z,85.30
2018-03-29T18:32:41.580Z,85.50
2018-03-29T18:35:09.801Z,88.40
2018-03-29T18:37:37.273Z,88.40
2018-03-29T18:40:05.493Z,88.50
2018-03-29T18:42:32.962Z,88.50
2018-03-29T18:45:00.833Z,89.20
2018-03-29T18:47:28.379Z,89.80
2018-03-29T18:49:55.919Z,90.20
2018-03-29T18:52:23.454Z,90.00
2018-03-29T18:54:50.915Z,91.00
2018-03-29T18:57:18.401Z,91.40
2018-03-29T18:59:45.863Z,91.60
2018-03-29T19:02:13.422Z,91.50
2018-03-29T19:04:42.213Z,92.10
2018-03-29T19:07:09.695Z,92.10
2018-03-29T19:09:37.325Z,92.00
2018-03-29T19:12:04.885Z,92.30
2018-03-29T19:14:33.140Z,92.90
2018-03-29T19:17:00.630Z,93.10
2018-03-29T19:19:28.128Z,93.10
2018-03-29T19:21:55.624Z,93.10
2018-03-29T19:24:24.603Z,93.50
2018-03-29T19:26:52.119Z,93.50
2018-03-29T19:29:19.591Z,94.00
2018-03-29T19:31:47.123Z,94.00
2018-03-29T19:34:15.510Z,94.20
2018-03-29T19:36:43.740Z,94.20
2018-03-29T19:39:11.447Z,94.10
2018-03-29T19:41:38.954Z,94.30
2018-03-29T19:44:06.451Z,94.20
2018-03-29T19:46:33.913Z,94.20
2018-03-29T19:49:01.406Z,94.40
2018-03-29T19:51:28.870Z,94.80
2018-03-29T19:53:56.334Z,95.20
2018-03-29T19:56:23.852Z,95.20
2018-03-29T19:58:51.381Z,95.30
2018-03-29T20:01:19.619Z,95.30
2018-03-29T20:03:47.881Z,95.50
2018-03-29T20:06:15.342Z,95.50
2018-03-29T20:08:43.288Z,95.50
2018-03-29T20:11:10.754Z,95.50
2018-03-29T20:13:38.995Z,95.60
2018-03-29T20:16:06.463Z,95.60
2018-03-29T20:18:33.970Z,95.50
2018-03-29T20:21:01.451Z,96.00
2018-03-29T20:23:28.918Z,96.40
2018-03-29T20:25:56.374Z,96.60
2018-03-29T20:28:23.902Z,96.40
2018-03-29T20:30:51.360Z,96.30
2018-03-29T20:33:18.828Z,96.30
2018-03-29T20:35:46.428Z,96.50
2018-03-29T20:38:13.886Z,97.00
2018-03-29T20:40:41.365Z,96.90
2018-03-29T20:43:09.624Z,97.00
2018-03-29T20:45:37.078Z,96.90
2018-03-29T20:48:04.620Z,97.20
2018-03-29T20:50:32.990Z,97.50
2018-03-29T20:53:00.467Z,97.50
2018-03-29T20:55:27.931Z,97.20
2018-03-29T20:57:55.388Z,97.40
2018-03-29T21:00:23.613Z,97.30
2018-03-29T21:02:51.076Z,97.30
2018-03-29T21:05:18.546Z,97.20
2018-03-29T21:07:46.772Z,97.60
2018-03-29T21:10:14.226Z,97.60
2018-03-29T21:12:43.234Z,97.20
2018-03-29T21:15:10.787Z,97.20
2018-03-29T21:17:38.249Z,96.50
2018-03-29T21:20:05.742Z,96.50
2018-03-29T21:22:33.249Z,96.70
2018-03-29T21:25:00.710Z,97.10
2018-03-29T21:27:28.163Z,97.90
2018-03-29T21:29:56.519Z,97.70
2018-03-29T21:32:24.040Z,97.70
2018-03-29T21:34:51.574Z,97.70
2018-03-29T21:37:19.066Z,97.50
2018-03-29T21:39:46.556Z,97.70
2018-03-29T21:42:14.109Z,97.30
2018-03-29T21:44:42.107Z,97.60
2018-03-29T21:47:09.576Z,98.00
2018-03-29T21:49:37.091Z,98.40
2018-03-29T21:52:04.590Z,98.20
2018-03-29T21:54:32.154Z,98.20
2018-03-29T21:56:59.634Z,97.90
2018-03-29T21:59:27.126Z,97.70
2018-03-29T22:01:54.716Z,97.80
2018-03-29T22:04:22.195Z,97.50
2018-03-29T22:06:49.705Z,97.60
2018-03-29T22:09:17.170Z,98.00
2018-03-29T22:11:44.629Z,97.70
2018-03-29T22:14:12.551Z,97.80
2018-03-29T22:16:40.010Z,98.10
2018-03-29T22:19:07.472Z,98.10
2018-03-29T22:21:34.938Z,98.20
2018-03-29T22:24:02.399Z,98.40
2018-03-29T22:26:31.401Z,98.80
2018-03-29T22:28:58.866Z,99.00
2018-03-29T22:31:26.375Z,98.80
2018-03-29T22:33:53.835Z,98.50
2018-03-29T22:36:21.339Z,98.50
2018-03-29T22:38:48.798Z,98.30
2018-03-29T22:41:16.295Z,98.10
2018-03-29T22:43:43.956Z,98.40
2018-03-29T22:46:11.411Z,98.50
2018-03-29T22:48:39.638Z,98.40
2018-03-29T22:51:07.105Z,98.40
2018-03-29T22:53:35.374Z,98.70
2018-03-29T22:56:02.958Z,98.70
2018-03-29T22:58:30.423Z,98.70
2018-03-29T23:00:57.889Z,98.60
2018-03-29T23:03:25.359Z,98.60
2018-03-29T23:05:52.828Z,98.60
2018-03-29T23:08:21.056Z,98.80
2018-03-29T23:10:48.568Z,98.80
2018-03-29T23:13:16.046Z,98.80
2018-03-29T23:15:43.522Z,98.60
2018-03-29T23:18:10.981Z,98.90
2018-03-29T23:20:38.438Z,99.00
2018-03-29T23:23:06.671Z,99.20
2018-03-29T23:25:34.134Z,99.20
2018-03-29T23:28:02.399Z,99.20
2018-03-29T23:30:29.870Z,99.20
2018-03-29T23:32:57.343Z,99.30
2018-03-29T23:35:24.802Z,98.90
2018-03-29T23:37:53.040Z,99.20
2018-03-29T23:40:20.501Z,99.20
2018-03-29T23:42:47.983Z,99.20
2018-03-29T23:45:15.504Z,99.10
2018-03-29T23:47:43.554Z,98.90
2018-03-29T23:50:11.295Z,99.10
2018-03-29T23:52:38.772Z,98.90
2018-03-29T23:55:06.242Z,98.80
2018-03-29T23:57:33.714Z,98.70
